Aérodrome :
LOGIN :

S'inscrire | Disclaimer

   EN    FR    IT 

 










Légende :    VFR   VFR Marginal   IFR   IFR Intensif   IFR Très Intensif
Visi : 
Plafond : 
>= 8 km
>= 3000ft
5 à 8 km
1000 à 3000 ft
1500m à 5 km
500 à 1000 ft
800 à 1500m
200 à 500 ft
< 800m
< 200 ft
Symboles :   Orages  Brouillard  Fortes neiges  Fortes précipitations  Vent > 20 kt
SIGMETs :   Divers  Orages  Givrage  Turbulence  Onde Orograph.  Cendres Volcan.






- Altitude de l'aérodrome : 290 ft
- Code IATA : OSI


LDOS - Osijek

DERNIER METAR :
  • 291630Z 34006KT CAVOK 03/03 Q1012

METARs EXPIRÉS :
  • 291600Z 33005KT CAVOK 04/03 Q1012
  • 291530Z 34007KT CAVOK 05/03 Q1011
  • 291500Z VRB02KT CAVOK 06/04 Q1010
  • 291430Z 10009KT CAVOK 05/04 Q1009
  • 291400Z 05011KT CAVOK 05/03 Q1009

TAF TAF LDOS
Valide du 29 à 12h jusqu'au 30 à 12h UTC


291125Z 2912/3012 VRB02KT CAVOK TX06/2913Z TNM02/3001Z
PROB30
TEMPO 2912/2917 29010KT -TSRA FEW030CB BKN035
PROB40 2919/3002 2000 BR
PROB40
TEMPO 3000/3004 SHRA FEW030TCU BKN035
BECMG 3002/3004 29008KT



MET'MAP, la Météo Aéronautique d'un coup d'oeil ! - Copyright ORBIFLY Décembre 2007 - Disclaimer

ORBIFLY MET'MAP TEAM :

Programmation & Développement : Alexandra Zaïnal
Sur une idée originale de : Baudouin d'Aumeries
Assistance à la programmation : Marc-Olivier Méhu
Soutien technique & logistique : Manuel Goepfert

Contact : metmap@orbifly.com




SOURCES & CREDITS :

   NOAA